Terminal Aerodrome Forecast
Issued by NWS

Home | Current Version | Previous Version | Text Only | Print | Product List | Glossary On
Versions: 1 2 3 4 5 6 7 8 9 10 11 12 13 14 15 16 17 18
968
FTUS43 KJKL 290538
TAFSME
TAF
KSME 290538Z 2906/3006 VRB03KT P6SM VCSH SCT035 BKN060
     FM290800 VRB03KT 3SM BR BKN030
     FM291000 VRB03KT 3SM BR BKN015
     FM291300 VRB03KT P6SM BKN040
     FM291400 VRB03KT P6SM SCT200=

USA.gov is the U.S. government's official web portal to all federal, state and local government web resources and services.